sensor_id;sensor_type;location;lat;lon;timestamp;temperature;humidity
69031;DHT22;56083;48.774;8.942;2023-08-07T00:00:22;10.40;99.90
69031;DHT22;56083;48.774;8.942;2023-08-07T00:02:48;10.30;99.90
69031;DHT22;56083;48.774;8.942;2023-08-07T00:05:14;10.30;99.90
69031;DHT22;56083;48.774;8.942;2023-08-07T00:07:39;10.30;99.90
69031;DHT22;56083;48.774;8.942;2023-08-07T00:10:06;10.20;99.90
69031;DHT22;56083;48.774;8.942;2023-08-07T00:12:31;10.20;99.90
69031;DHT22;56083;48.774;8.942;2023-08-07T00:14:57;10.20;99.90
69031;DHT22;56083;48.774;8.942;2023-08-07T00:17:23;10.30;99.90
69031;DHT22;56083;48.774;8.942;2023-08-07T00:19:48;10.20;99.90
69031;DHT22;56083;48.774;8.942;2023-08-07T00:22:14;10.20;99.90
69031;DHT22;56083;48.774;8.942;2023-08-07T00:24:39;10.20;99.90
69031;DHT22;56083;48.774;8.942;2023-08-07T00:27:05;10.30;99.90
69031;DHT22;56083;48.774;8.942;2023-08-07T00:29:33;10.20;99.90
69031;DHT22;56083;48.774;8.942;2023-08-07T00:31:59;10.20;99.90
69031;DHT22;56083;48.774;8.942;2023-08-07T00:34:25;10.20;99.90
69031;DHT22;56083;48.774;8.942;2023-08-07T00:36:50;10.30;99.90
69031;DHT22;56083;48.774;8.942;2023-08-07T00:39:16;10.30;99.90
69031;DHT22;56083;48.774;8.942;2023-08-07T00:41:41;10.30;99.90
69031;DHT22;56083;48.774;8.942;2023-08-07T00:44:07;10.40;99.90
69031;DHT22;56083;48.774;8.942;2023-08-07T00:46:33;10.40;99.90
69031;DHT22;56083;48.774;8.942;2023-08-07T00:48:58;10.40;99.90
69031;DHT22;56083;48.774;8.942;2023-08-07T00:51:24;10.40;99.90
69031;DHT22;56083;48.774;8.942;2023-08-07T00:53:50;10.40;99.90
69031;DHT22;56083;48.774;8.942;2023-08-07T00:56:17;10.50;99.90
69031;DHT22;56083;48.774;8.942;2023-08-07T00:58:43;10.50;99.90
69031;DHT22;56083;48.774;8.942;2023-08-07T01:01:09;10.50;99.90
69031;DHT22;56083;48.774;8.942;2023-08-07T01:03:34;10.50;99.90
69031;DHT22;56083;48.774;8.942;2023-08-07T01:06:00;10.60;99.90
69031;DHT22;56083;48.774;8.942;2023-08-07T01:08:27;10.70;99.90
69031;DHT22;56083;48.774;8.942;2023-08-07T01:16:48;10.70;99.90
69031;DHT22;56083;48.774;8.942;2023-08-07T01:19:28;10.80;99.90
69031;DHT22;56083;48.774;8.942;2023-08-07T01:22:13;10.80;99.90
69031;DHT22;56083;48.774;8.942;2023-08-07T01:24:41;10.80;99.90
69031;DHT22;56083;48.774;8.942;2023-08-07T01:29:57;10.80;99.90
69031;DHT22;56083;48.774;8.942;2023-08-07T01:35:05;10.80;99.90
69031;DHT22;56083;48.774;8.942;2023-08-07T01:37:35;10.90;99.90
69031;DHT22;56083;48.774;8.942;2023-08-07T01:40:02;10.90;99.90
69031;DHT22;56083;48.774;8.942;2023-08-07T01:42:29;11.00;99.90
69031;DHT22;56083;48.774;8.942;2023-08-07T01:44:55;11.00;99.90
69031;DHT22;56083;48.774;8.942;2023-08-07T01:47:20;11.00;99.90
69031;DHT22;56083;48.774;8.942;2023-08-07T01:49:46;11.10;99.90
69031;DHT22;56083;48.774;8.942;2023-08-07T01:52:12;11.10;99.90
69031;DHT22;56083;48.774;8.942;2023-08-07T01:54:38;11.10;99.90
69031;DHT22;56083;48.774;8.942;2023-08-07T01:57:03;11.10;99.90
69031;DHT22;56083;48.774;8.942;2023-08-07T01:59:29;11.10;99.90
69031;DHT22;56083;48.774;8.942;2023-08-07T02:01:55;11.20;99.90
69031;DHT22;56083;48.774;8.942;2023-08-07T02:04:20;11.10;99.90
69031;DHT22;56083;48.774;8.942;2023-08-07T02:06:46;11.10;99.90
69031;DHT22;56083;48.774;8.942;2023-08-07T02:09:11;11.10;99.90
69031;DHT22;56083;48.774;8.942;2023-08-07T02:11:37;11.10;99.90
69031;DHT22;56083;48.774;8.942;2023-08-07T02:14:03;11.10;99.90
69031;DHT22;56083;48.774;8.942;2023-08-07T02:16:28;11.10;99.90
69031;DHT22;56083;48.774;8.942;2023-08-07T02:18:54;11.10;99.90
69031;DHT22;56083;48.774;8.942;2023-08-07T02:21:19;11.10;99.90
69031;DHT22;56083;48.774;8.942;2023-08-07T02:23:45;11.10;99.90
69031;DHT22;56083;48.774;8.942;2023-08-07T02:26:11;11.10;99.90
69031;DHT22;56083;48.774;8.942;2023-08-07T02:28:36;11.10;99.90
69031;DHT22;56083;48.774;8.942;2023-08-07T02:31:02;11.10;99.90
69031;DHT22;56083;48.774;8.942;2023-08-07T02:33:27;11.10;99.90
69031;DHT22;56083;48.774;8.942;2023-08-07T02:35:56;11.10;99.90
69031;DHT22;56083;48.774;8.942;2023-08-07T02:38:21;11.10;99.90
69031;DHT22;56083;48.774;8.942;2023-08-07T02:40:47;11.10;99.90
69031;DHT22;56083;48.774;8.942;2023-08-07T02:43:12;11.10;99.90
69031;DHT22;56083;48.774;8.942;2023-08-07T02:45:38;11.10;99.90
69031;DHT22;56083;48.774;8.942;2023-08-07T02:48:04;11.00;99.90
69031;DHT22;56083;48.774;8.942;2023-08-07T02:50:30;10.90;99.90
69031;DHT22;56083;48.774;8.942;2023-08-07T02:52:58;10.80;99.90
69031;DHT22;56083;48.774;8.942;2023-08-07T02:55:24;10.80;99.90
69031;DHT22;56083;48.774;8.942;2023-08-07T02:57:49;10.80;99.90
69031;DHT22;56083;48.774;8.942;2023-08-07T03:00:15;10.70;99.90
69031;DHT22;56083;48.774;8.942;2023-08-07T03:02:41;10.60;99.90
69031;DHT22;56083;48.774;8.942;2023-08-07T03:05:07;10.50;99.90
69031;DHT22;56083;48.774;8.942;2023-08-07T03:07:32;10.50;99.90
69031;DHT22;56083;48.774;8.942;2023-08-07T03:09:58;10.50;99.90
69031;DHT22;56083;48.774;8.942;2023-08-07T03:12:24;10.50;99.90
69031;DHT22;56083;48.774;8.942;2023-08-07T03:14:49;10.50;99.90
69031;DHT22;56083;48.774;8.942;2023-08-07T03:17:15;10.60;99.90
69031;DHT22;56083;48.774;8.942;2023-08-07T03:19:42;10.60;99.90
69031;DHT22;56083;48.774;8.942;2023-08-07T03:22:08;10.60;99.90
69031;DHT22;56083;48.774;8.942;2023-08-07T03:24:34;10.60;99.90
69031;DHT22;56083;48.774;8.942;2023-08-07T03:27:00;10.70;99.90
69031;DHT22;56083;48.774;8.942;2023-08-07T03:29:25;10.70;99.90
69031;DHT22;56083;48.774;8.942;2023-08-07T03:31:51;10.70;99.90
69031;DHT22;56083;48.774;8.942;2023-08-07T03:34:17;10.70;99.90
69031;DHT22;56083;48.774;8.942;2023-08-07T03:36:42;10.80;99.90
69031;DHT22;56083;48.774;8.942;2023-08-07T03:39:08;10.70;99.90
69031;DHT22;56083;48.774;8.942;2023-08-07T03:41:35;10.70;99.90
69031;DHT22;56083;48.774;8.942;2023-08-07T03:44:01;10.70;99.90
69031;DHT22;56083;48.774;8.942;2023-08-07T03:46:26;10.60;99.90
69031;DHT22;56083;48.774;8.942;2023-08-07T03:48:52;10.60;99.90
69031;DHT22;56083;48.774;8.942;2023-08-07T03:51:17;10.60;99.90
69031;DHT22;56083;48.774;8.942;2023-08-07T03:53:43;10.60;99.90
69031;DHT22;56083;48.774;8.942;2023-08-07T03:56:09;10.60;99.90
69031;DHT22;56083;48.774;8.942;2023-08-07T03:58:35;10.50;99.90
69031;DHT22;56083;48.774;8.942;2023-08-07T04:01:00;10.60;99.90
69031;DHT22;56083;48.774;8.942;2023-08-07T04:03:26;10.50;99.90
69031;DHT22;56083;48.774;8.942;2023-08-07T04:05:52;10.40;99.90
69031;DHT22;56083;48.774;8.942;2023-08-07T04:08:19;10.40;99.90
69031;DHT22;56083;48.774;8.942;2023-08-07T04:10:45;10.40;99.90
69031;DHT22;56083;48.774;8.942;2023-08-07T04:13:10;10.50;99.90
69031;DHT22;56083;48.774;8.942;2023-08-07T04:15:36;10.40;99.90
69031;DHT22;56083;48.774;8.942;2023-08-07T04:18:01;10.50;99.90
69031;DHT22;56083;48.774;8.942;2023-08-07T04:20:27;10.50;99.90
69031;DHT22;56083;48.774;8.942;2023-08-07T04:22:53;10.50;99.90
69031;DHT22;56083;48.774;8.942;2023-08-07T04:25:18;10.50;99.90
69031;DHT22;56083;48.774;8.942;2023-08-07T04:27:44;10.50;99.90
69031;DHT22;56083;48.774;8.942;2023-08-07T04:30:10;10.50;99.90
69031;DHT22;56083;48.774;8.942;2023-08-07T04:32:36;10.50;99.90
69031;DHT22;56083;48.774;8.942;2023-08-07T04:35:01;10.50;99.90
69031;DHT22;56083;48.774;8.942;2023-08-07T04:37:27;10.50;99.90
69031;DHT22;56083;48.774;8.942;2023-08-07T04:39:55;10.60;99.90
69031;DHT22;56083;48.774;8.942;2023-08-07T04:42:21;10.60;99.90
69031;DHT22;56083;48.774;8.942;2023-08-07T04:44:46;10.70;99.90
69031;DHT22;56083;48.774;8.942;2023-08-07T04:47:12;10.70;99.90
69031;DHT22;56083;48.774;8.942;2023-08-07T04:49:38;10.80;99.90
69031;DHT22;56083;48.774;8.942;2023-08-07T04:52:04;10.80;99.90
69031;DHT22;56083;48.774;8.942;2023-08-07T04:54:29;10.90;99.90
69031;DHT22;56083;48.774;8.942;2023-08-07T04:56:55;10.90;99.90
69031;DHT22;56083;48.774;8.942;2023-08-07T04:59:20;10.90;99.90
69031;DHT22;56083;48.774;8.942;2023-08-07T05:01:46;10.90;99.90
69031;DHT22;56083;48.774;8.942;2023-08-07T05:04:12;10.90;99.90
69031;DHT22;56083;48.774;8.942;2023-08-07T05:06:37;11.00;99.90
69031;DHT22;56083;48.774;8.942;2023-08-07T05:09:03;11.10;99.90
69031;DHT22;56083;48.774;8.942;2023-08-07T05:11:29;11.20;99.90
69031;DHT22;56083;48.774;8.942;2023-08-07T05:13:54;11.30;99.90
69031;DHT22;56083;48.774;8.942;2023-08-07T05:16:20;11.40;99.90
69031;DHT22;56083;48.774;8.942;2023-08-07T05:18:45;11.40;99.90
69031;DHT22;56083;48.774;8.942;2023-08-07T05:21:11;11.50;99.90
69031;DHT22;56083;48.774;8.942;2023-08-07T05:23:37;11.60;99.90
69031;DHT22;56083;48.774;8.942;2023-08-07T05:26:02;11.60;99.90
69031;DHT22;56083;48.774;8.942;2023-08-07T05:28:28;11.70;99.90
69031;DHT22;56083;48.774;8.942;2023-08-07T05:30:54;11.70;99.90
69031;DHT22;56083;48.774;8.942;2023-08-07T05:33:19;11.80;99.90
69031;DHT22;56083;48.774;8.942;2023-08-07T05:35:45;11.90;99.90
69031;DHT22;56083;48.774;8.942;2023-08-07T05:38:11;12.00;99.90
69031;DHT22;56083;48.774;8.942;2023-08-07T05:40:39;12.00;99.90
69031;DHT22;56083;48.774;8.942;2023-08-07T05:43:06;12.00;99.90
69031;DHT22;56083;48.774;8.942;2023-08-07T05:45:31;12.10;99.90
69031;DHT22;56083;48.774;8.942;2023-08-07T05:47:57;12.20;99.90
69031;DHT22;56083;48.774;8.942;2023-08-07T05:50:23;12.20;99.90
69031;DHT22;56083;48.774;8.942;2023-08-07T05:52:48;12.30;99.90
69031;DHT22;56083;48.774;8.942;2023-08-07T05:55:14;12.30;99.90
69031;DHT22;56083;48.774;8.942;2023-08-07T05:57:39;12.30;99.90
69031;DHT22;56083;48.774;8.942;2023-08-07T06:00:05;12.40;99.90
69031;DHT22;56083;48.774;8.942;2023-08-07T06:02:33;12.40;99.90
69031;DHT22;56083;48.774;8.942;2023-08-07T06:04:58;12.40;99.90
69031;DHT22;56083;48.774;8.942;2023-08-07T06:07:24;12.40;99.90
69031;DHT22;56083;48.774;8.942;2023-08-07T06:09:49;12.40;99.90
69031;DHT22;56083;48.774;8.942;2023-08-07T06:12:15;12.40;99.90
69031;DHT22;56083;48.774;8.942;2023-08-07T06:14:41;12.30;99.90
69031;DHT22;56083;48.774;8.942;2023-08-07T06:17:06;12.40;99.90
69031;DHT22;56083;48.774;8.942;2023-08-07T06:19:32;12.40;99.90
69031;DHT22;56083;48.774;8.942;2023-08-07T06:21:58;12.50;99.90
69031;DHT22;56083;48.774;8.942;2023-08-07T06:24:24;12.50;99.90
69031;DHT22;56083;48.774;8.942;2023-08-07T06:26:51;12.60;99.90
69031;DHT22;56083;48.774;8.942;2023-08-07T06:29:16;12.70;99.90
69031;DHT22;56083;48.774;8.942;2023-08-07T06:31:42;12.70;99.90
69031;DHT22;56083;48.774;8.942;2023-08-07T06:34:08;12.70;99.90
69031;DHT22;56083;48.774;8.942;2023-08-07T06:36:34;12.80;99.90
69031;DHT22;56083;48.774;8.942;2023-08-07T06:38:59;12.90;99.90
69031;DHT22;56083;48.774;8.942;2023-08-07T06:41:25;12.90;99.90
69031;DHT22;56083;48.774;8.942;2023-08-07T06:43:52;13.00;99.90
69031;DHT22;56083;48.774;8.942;2023-08-07T06:46:18;13.00;99.90
69031;DHT22;56083;48.774;8.942;2023-08-07T06:48:46;13.10;99.90
69031;DHT22;56083;48.774;8.942;2023-08-07T06:51:16;13.00;99.90
69031;DHT22;56083;48.774;8.942;2023-08-07T06:53:50;13.10;99.90
69031;DHT22;56083;48.774;8.942;2023-08-07T06:56:18;13.20;99.90
69031;DHT22;56083;48.774;8.942;2023-08-07T06:58:53;13.20;99.90
69031;DHT22;56083;48.774;8.942;2023-08-07T07:01:18;13.20;99.90
69031;DHT22;56083;48.774;8.942;2023-08-07T07:03:44;13.10;99.90
69031;DHT22;56083;48.774;8.942;2023-08-07T07:06:12;13.10;99.90
69031;DHT22;56083;48.774;8.942;2023-08-07T07:08:38;13.10;99.90
69031;DHT22;56083;48.774;8.942;2023-08-07T07:11:04;13.00;99.90
69031;DHT22;56083;48.774;8.942;2023-08-07T07:13:30;12.90;99.90
69031;DHT22;56083;48.774;8.942;2023-08-07T07:15:56;12.90;99.90
69031;DHT22;56083;48.774;8.942;2023-08-07T07:18:21;12.80;99.90
69031;DHT22;56083;48.774;8.942;2023-08-07T07:20:47;13.10;99.90
69031;DHT22;56083;48.774;8.942;2023-08-07T07:23:13;13.80;99.90
69031;DHT22;56083;48.774;8.942;2023-08-07T07:25:38;14.20;99.90
69031;DHT22;56083;48.774;8.942;2023-08-07T07:28:04;14.70;99.90
69031;DHT22;56083;48.774;8.942;2023-08-07T07:30:29;15.40;99.90
69031;DHT22;56083;48.774;8.942;2023-08-07T07:32:55;15.90;99.90
69031;DHT22;56083;48.774;8.942;2023-08-07T07:35:21;15.90;99.90
69031;DHT22;56083;48.774;8.942;2023-08-07T07:37:46;15.80;99.90
69031;DHT22;56083;48.774;8.942;2023-08-07T07:40:12;15.80;99.90
69031;DHT22;56083;48.774;8.942;2023-08-07T07:42:38;15.80;99.90
69031;DHT22;56083;48.774;8.942;2023-08-07T07:45:04;15.70;99.90
69031;DHT22;56083;48.774;8.942;2023-08-07T07:47:29;15.40;99.90
69031;DHT22;56083;48.774;8.942;2023-08-07T07:50:08;15.00;99.90
69031;DHT22;56083;48.774;8.942;2023-08-07T07:52:34;14.60;99.90
69031;DHT22;56083;48.774;8.942;2023-08-07T07:55:00;14.30;99.90
69031;DHT22;56083;48.774;8.942;2023-08-07T07:57:25;14.40;99.90
69031;DHT22;56083;48.774;8.942;2023-08-07T07:59:51;14.40;99.90
69031;DHT22;56083;48.774;8.942;2023-08-07T08:02:17;14.60;99.90
69031;DHT22;56083;48.774;8.942;2023-08-07T08:04:43;14.80;99.90
69031;DHT22;56083;48.774;8.942;2023-08-07T08:07:09;14.80;99.90
69031;DHT22;56083;48.774;8.942;2023-08-07T08:09:35;14.70;99.90
69031;DHT22;56083;48.774;8.942;2023-08-07T08:12:00;14.90;99.90
69031;DHT22;56083;48.774;8.942;2023-08-07T08:14:26;15.50;99.90
69031;DHT22;56083;48.774;8.942;2023-08-07T08:16:51;16.50;99.90
69031;DHT22;56083;48.774;8.942;2023-08-07T08:19:17;17.00;99.90
69031;DHT22;56083;48.774;8.942;2023-08-07T08:21:43;16.90;99.90
69031;DHT22;56083;48.774;8.942;2023-08-07T08:24:08;16.70;99.90
69031;DHT22;56083;48.774;8.942;2023-08-07T08:26:34;17.20;99.90
69031;DHT22;56083;48.774;8.942;2023-08-07T08:29:00;17.00;99.90
69031;DHT22;56083;48.774;8.942;2023-08-07T08:31:25;17.20;99.90
69031;DHT22;56083;48.774;8.942;2023-08-07T08:33:51;17.10;99.90
69031;DHT22;56083;48.774;8.942;2023-08-07T08:36:17;16.90;99.90
69031;DHT22;56083;48.774;8.942;2023-08-07T08:38:44;16.90;99.90
69031;DHT22;56083;48.774;8.942;2023-08-07T08:41:12;17.10;99.90
69031;DHT22;56083;48.774;8.942;2023-08-07T08:43:38;17.30;99.90
69031;DHT22;56083;48.774;8.942;2023-08-07T08:46:05;16.90;99.90
69031;DHT22;56083;48.774;8.942;2023-08-07T08:48:36;16.80;99.90
69031;DHT22;56083;48.774;8.942;2023-08-07T08:51:04;16.60;99.90
69031;DHT22;56083;48.774;8.942;2023-08-07T08:53:32;16.40;99.90
69031;DHT22;56083;48.774;8.942;2023-08-07T08:55:57;16.40;99.90
69031;DHT22;56083;48.774;8.942;2023-08-07T08:58:23;16.70;99.90
69031;DHT22;56083;48.774;8.942;2023-08-07T09:00:49;16.70;99.90
69031;DHT22;56083;48.774;8.942;2023-08-07T09:03:16;17.20;99.90
69031;DHT22;56083;48.774;8.942;2023-08-07T09:05:42;18.30;99.90
69031;DHT22;56083;48.774;8.942;2023-08-07T09:08:08;18.80;99.90
69031;DHT22;56083;48.774;8.942;2023-08-07T09:10:37;19.30;99.90
69031;DHT22;56083;48.774;8.942;2023-08-07T09:13:04;19.80;99.90
69031;DHT22;56083;48.774;8.942;2023-08-07T09:15:32;20.20;99.90
69031;DHT22;56083;48.774;8.942;2023-08-07T09:17:58;19.90;99.90
69031;DHT22;56083;48.774;8.942;2023-08-07T09:20:25;19.50;99.90
69031;DHT22;56083;48.774;8.942;2023-08-07T09:22:51;19.30;99.90
69031;DHT22;56083;48.774;8.942;2023-08-07T09:25:33;18.60;99.90
69031;DHT22;56083;48.774;8.942;2023-08-07T09:28:04;18.10;99.90
69031;DHT22;56083;48.774;8.942;2023-08-07T09:30:31;17.90;99.90
69031;DHT22;56083;48.774;8.942;2023-08-07T09:33:25;17.80;99.90
69031;DHT22;56083;48.774;8.942;2023-08-07T09:35:52;17.20;99.90
69031;DHT22;56083;48.774;8.942;2023-08-07T09:38:18;17.00;99.90
69031;DHT22;56083;48.774;8.942;2023-08-07T09:40:43;16.90;99.90
69031;DHT22;56083;48.774;8.942;2023-08-07T09:43:09;16.50;99.90
69031;DHT22;56083;48.774;8.942;2023-08-07T09:45:36;16.20;99.90
69031;DHT22;56083;48.774;8.942;2023-08-07T09:48:06;16.20;99.90
69031;DHT22;56083;48.774;8.942;2023-08-07T09:50:32;16.10;99.90
69031;DHT22;56083;48.774;8.942;2023-08-07T09:52:58;16.10;99.90
69031;DHT22;56083;48.774;8.942;2023-08-07T09:55:24;16.40;99.90
69031;DHT22;56083;48.774;8.942;2023-08-07T09:57:50;16.50;99.90
69031;DHT22;56083;48.774;8.942;2023-08-07T10:00:17;16.40;99.90
69031;DHT22;56083;48.774;8.942;2023-08-07T10:02:46;17.30;99.90
69031;DHT22;56083;48.774;8.942;2023-08-07T10:05:13;18.00;99.90
69031;DHT22;56083;48.774;8.942;2023-08-07T10:07:41;18.90;99.90
69031;DHT22;56083;48.774;8.942;2023-08-07T10:10:08;19.30;99.90
69031;DHT22;56083;48.774;8.942;2023-08-07T10:12:36;18.60;99.90
69031;DHT22;56083;48.774;8.942;2023-08-07T10:15:03;18.20;99.90
69031;DHT22;56083;48.774;8.942;2023-08-07T10:17:29;17.80;99.90
69031;DHT22;56083;48.774;8.942;2023-08-07T10:19:56;17.60;99.90
69031;DHT22;56083;48.774;8.942;2023-08-07T10:22:28;17.80;99.90
69031;DHT22;56083;48.774;8.942;2023-08-07T10:24:57;17.70;99.90
69031;DHT22;56083;48.774;8.942;2023-08-07T10:27:23;17.80;99.90
69031;DHT22;56083;48.774;8.942;2023-08-07T10:29:50;18.30;99.90
69031;DHT22;56083;48.774;8.942;2023-08-07T10:32:19;18.80;99.90
69031;DHT22;56083;48.774;8.942;2023-08-07T10:34:52;19.00;99.90
69031;DHT22;56083;48.774;8.942;2023-08-07T10:37:43;19.10;99.90
69031;DHT22;56083;48.774;8.942;2023-08-07T10:40:10;19.10;99.90
69031;DHT22;56083;48.774;8.942;2023-08-07T10:45:20;18.80;99.90
69031;DHT22;56083;48.774;8.942;2023-08-07T10:50:30;17.50;99.90
69031;DHT22;56083;48.774;8.942;2023-08-07T10:52:56;17.40;99.90
69031;DHT22;56083;48.774;8.942;2023-08-07T10:55:24;17.30;99.90
69031;DHT22;56083;48.774;8.942;2023-08-07T10:57:50;17.40;99.90
69031;DHT22;56083;48.774;8.942;2023-08-07T11:00:16;17.10;99.90
69031;DHT22;56083;48.774;8.942;2023-08-07T11:02:42;16.90;99.90
69031;DHT22;56083;48.774;8.942;2023-08-07T11:05:08;16.90;99.90
69031;DHT22;56083;48.774;8.942;2023-08-07T11:07:34;16.90;99.90
69031;DHT22;56083;48.774;8.942;2023-08-07T11:10:01;16.90;99.90
69031;DHT22;56083;48.774;8.942;2023-08-07T11:12:27;16.90;99.90
69031;DHT22;56083;48.774;8.942;2023-08-07T11:14:54;17.00;99.90
69031;DHT22;56083;48.774;8.942;2023-08-07T11:17:27;17.00;99.90
69031;DHT22;56083;48.774;8.942;2023-08-07T11:19:55;16.90;99.90
69031;DHT22;56083;48.774;8.942;2023-08-07T11:22:21;17.00;99.90
69031;DHT22;56083;48.774;8.942;2023-08-07T11:24:47;16.90;99.90
69031;DHT22;56083;48.774;8.942;2023-08-07T11:27:12;16.50;99.90
69031;DHT22;56083;48.774;8.942;2023-08-07T11:29:38;16.30;99.90
69031;DHT22;56083;48.774;8.942;2023-08-07T11:32:05;16.20;99.90
69031;DHT22;56083;48.774;8.942;2023-08-07T11:34:30;16.00;99.90
69031;DHT22;56083;48.774;8.942;2023-08-07T11:36:56;15.90;99.90
69031;DHT22;56083;48.774;8.942;2023-08-07T11:39:23;15.80;99.90
69031;DHT22;56083;48.774;8.942;2023-08-07T11:41:53;15.80;99.90
69031;DHT22;56083;48.774;8.942;2023-08-07T11:44:19;15.60;99.90
69031;DHT22;56083;48.774;8.942;2023-08-07T11:46:45;15.40;99.90
69031;DHT22;56083;48.774;8.942;2023-08-07T11:49:10;15.40;99.90
69031;DHT22;56083;48.774;8.942;2023-08-07T11:51:37;15.40;99.90
69031;DHT22;56083;48.774;8.942;2023-08-07T11:54:05;15.40;99.90
69031;DHT22;56083;48.774;8.942;2023-08-07T11:56:30;15.60;99.90
69031;DHT22;56083;48.774;8.942;2023-08-07T11:58:57;15.70;99.90
69031;DHT22;56083;48.774;8.942;2023-08-07T12:01:25;15.60;99.90
69031;DHT22;56083;48.774;8.942;2023-08-07T12:06:20;15.40;99.90
69031;DHT22;56083;48.774;8.942;2023-08-07T12:08:49;15.20;99.90
69031;DHT22;56083;48.774;8.942;2023-08-07T12:11:16;15.00;99.90
69031;DHT22;56083;48.774;8.942;2023-08-07T12:13:43;14.90;99.90
69031;DHT22;56083;48.774;8.942;2023-08-07T12:16:11;15.00;99.90
69031;DHT22;56083;48.774;8.942;2023-08-07T12:18:47;15.30;99.90
69031;DHT22;56083;48.774;8.942;2023-08-07T12:21:15;15.70;99.90
69031;DHT22;56083;48.774;8.942;2023-08-07T12:23:41;16.10;99.90
69031;DHT22;56083;48.774;8.942;2023-08-07T12:26:07;16.40;99.90
69031;DHT22;56083;48.774;8.942;2023-08-07T12:28:36;16.60;99.90
69031;DHT22;56083;48.774;8.942;2023-08-07T12:31:02;16.80;99.90
69031;DHT22;56083;48.774;8.942;2023-08-07T12:33:31;17.10;99.90
69031;DHT22;56083;48.774;8.942;2023-08-07T12:35:58;17.20;99.90
69031;DHT22;56083;48.774;8.942;2023-08-07T12:38:24;17.30;99.90
69031;DHT22;56083;48.774;8.942;2023-08-07T12:40:49;17.30;99.90
69031;DHT22;56083;48.774;8.942;2023-08-07T12:43:15;17.10;99.90
69031;DHT22;56083;48.774;8.942;2023-08-07T12:45:41;17.00;99.90
69031;DHT22;56083;48.774;8.942;2023-08-07T12:48:07;17.20;99.90
69031;DHT22;56083;48.774;8.942;2023-08-07T12:50:33;17.40;99.90
69031;DHT22;56083;48.774;8.942;2023-08-07T12:52:59;17.80;99.90
69031;DHT22;56083;48.774;8.942;2023-08-07T12:55:25;18.00;99.90
69031;DHT22;56083;48.774;8.942;2023-08-07T12:57:52;18.40;99.90
69031;DHT22;56083;48.774;8.942;2023-08-07T13:00:18;18.50;99.90
69031;DHT22;56083;48.774;8.942;2023-08-07T13:02:48;18.30;99.90
69031;DHT22;56083;48.774;8.942;2023-08-07T13:05:15;18.00;99.90
69031;DHT22;56083;48.774;8.942;2023-08-07T13:07:42;17.60;99.90
69031;DHT22;56083;48.774;8.942;2023-08-07T13:10:10;17.20;99.90
69031;DHT22;56083;48.774;8.942;2023-08-07T13:12:38;16.90;99.90
69031;DHT22;56083;48.774;8.942;2023-08-07T13:15:04;16.70;99.90
69031;DHT22;56083;48.774;8.942;2023-08-07T13:17:31;16.60;99.90
69031;DHT22;56083;48.774;8.942;2023-08-07T13:19:56;16.70;99.90
69031;DHT22;56083;48.774;8.942;2023-08-07T13:22:22;16.80;99.90
69031;DHT22;56083;48.774;8.942;2023-08-07T13:24:48;17.00;99.90
69031;DHT22;56083;48.774;8.942;2023-08-07T13:27:13;18.10;99.90
69031;DHT22;56083;48.774;8.942;2023-08-07T13:29:39;19.80;99.90
69031;DHT22;56083;48.774;8.942;2023-08-07T13:32:05;20.80;99.90
69031;DHT22;56083;48.774;8.942;2023-08-07T13:34:38;20.40;99.90
69031;DHT22;56083;48.774;8.942;2023-08-07T13:37:05;20.40;99.90
69031;DHT22;56083;48.774;8.942;2023-08-07T13:39:32;20.50;99.90
69031;DHT22;56083;48.774;8.942;2023-08-07T13:41:57;20.40;99.90
69031;DHT22;56083;48.774;8.942;2023-08-07T13:44:25;20.00;99.90
69031;DHT22;56083;48.774;8.942;2023-08-07T13:46:50;20.00;99.90
69031;DHT22;56083;48.774;8.942;2023-08-07T13:49:16;21.30;99.90
69031;DHT22;56083;48.774;8.942;2023-08-07T13:51:42;22.90;99.90
69031;DHT22;56083;48.774;8.942;2023-08-07T13:54:08;24.30;99.90
69031;DHT22;56083;48.774;8.942;2023-08-07T13:56:33;24.20;99.90
69031;DHT22;56083;48.774;8.942;2023-08-07T13:58:59;23.20;99.90
69031;DHT22;56083;48.774;8.942;2023-08-07T14:01:25;21.90;99.90
69031;DHT22;56083;48.774;8.942;2023-08-07T14:03:51;22.50;99.90
69031;DHT22;56083;48.774;8.942;2023-08-07T14:06:17;22.80;99.90
69031;DHT22;56083;48.774;8.942;2023-08-07T14:08:42;22.90;99.90
69031;DHT22;56083;48.774;8.942;2023-08-07T14:11:08;22.50;99.90
69031;DHT22;56083;48.774;8.942;2023-08-07T14:13:34;21.70;99.90
69031;DHT22;56083;48.774;8.942;2023-08-07T14:15:59;20.60;99.90
69031;DHT22;56083;48.774;8.942;2023-08-07T14:18:25;21.00;99.90
69031;DHT22;56083;48.774;8.942;2023-08-07T14:20:52;20.60;99.90
69031;DHT22;56083;48.774;8.942;2023-08-07T14:23:18;19.90;99.90
69031;DHT22;56083;48.774;8.942;2023-08-07T14:25:44;19.30;99.90
69031;DHT22;56083;48.774;8.942;2023-08-07T14:28:10;18.90;99.90
69031;DHT22;56083;48.774;8.942;2023-08-07T14:30:36;18.70;99.90
69031;DHT22;56083;48.774;8.942;2023-08-07T14:33:02;18.40;99.90
69031;DHT22;56083;48.774;8.942;2023-08-07T14:35:27;18.50;99.90
69031;DHT22;56083;48.774;8.942;2023-08-07T14:37:53;19.40;99.90
69031;DHT22;56083;48.774;8.942;2023-08-07T14:40:19;20.40;99.90
69031;DHT22;56083;48.774;8.942;2023-08-07T14:42:44;21.00;99.90
69031;DHT22;56083;48.774;8.942;2023-08-07T14:45:10;21.70;99.90
69031;DHT22;56083;48.774;8.942;2023-08-07T14:47:36;21.70;99.90
69031;DHT22;56083;48.774;8.942;2023-08-07T14:50:02;22.10;99.90
69031;DHT22;56083;48.774;8.942;2023-08-07T14:52:28;22.70;99.90
69031;DHT22;56083;48.774;8.942;2023-08-07T14:54:53;23.00;99.90
69031;DHT22;56083;48.774;8.942;2023-08-07T14:57:22;23.70;99.90
69031;DHT22;56083;48.774;8.942;2023-08-07T14:59:48;24.20;99.90
69031;DHT22;56083;48.774;8.942;2023-08-07T15:02:14;23.70;99.90
69031;DHT22;56083;48.774;8.942;2023-08-07T15:04:39;22.00;99.90
69031;DHT22;56083;48.774;8.942;2023-08-07T15:07:06;20.70;99.90
69031;DHT22;56083;48.774;8.942;2023-08-07T15:09:35;20.10;99.90
69031;DHT22;56083;48.774;8.942;2023-08-07T15:12:05;20.00;99.90
69031;DHT22;56083;48.774;8.942;2023-08-07T15:14:32;20.00;99.90
69031;DHT22;56083;48.774;8.942;2023-08-07T15:16:58;19.80;99.90
69031;DHT22;56083;48.774;8.942;2023-08-07T15:19:25;19.70;99.90
69031;DHT22;56083;48.774;8.942;2023-08-07T15:21:54;19.80;99.90
69031;DHT22;56083;48.774;8.942;2023-08-07T15:24:23;20.20;99.90
69031;DHT22;56083;48.774;8.942;2023-08-07T15:26:50;21.00;99.90
69031;DHT22;56083;48.774;8.942;2023-08-07T15:29:17;20.90;99.90
69031;DHT22;56083;48.774;8.942;2023-08-07T15:31:43;20.40;99.90
69031;DHT22;56083;48.774;8.942;2023-08-07T15:34:09;19.70;99.90
69031;DHT22;56083;48.774;8.942;2023-08-07T15:36:37;19.00;99.90
69031;DHT22;56083;48.774;8.942;2023-08-07T15:39:03;18.70;99.90
69031;DHT22;56083;48.774;8.942;2023-08-07T15:41:30;18.40;99.90
69031;DHT22;56083;48.774;8.942;2023-08-07T15:43:56;18.20;99.90